createdAt,value
2023-02-11T00:02:40.277Z,102167.63
2023-02-11T00:05:24.294Z,102165.25
2023-02-11T00:08:08.465Z,102173.41
2023-02-11T00:10:55.185Z,102181.47
2023-02-11T00:13:39.022Z,102172.34
2023-02-11T00:16:23.035Z,102159.75
2023-02-11T00:19:07.487Z,102140.44
2023-02-11T00:21:51.241Z,102155.41
2023-02-11T00:24:35.045Z,102152.09
2023-02-11T00:27:20.564Z,102150.19
2023-02-11T00:30:05.425Z,102139.44
2023-02-11T00:32:49.295Z,102098.44
2023-02-11T00:35:33.341Z,102132.09
2023-02-11T00:38:17.369Z,102118.19
2023-02-11T00:41:01.291Z,102151.41
2023-02-11T00:43:47.111Z,102149.97
2023-02-11T00:46:31.104Z,102129.59
2023-02-11T00:49:15.425Z,102111.78
2023-02-11T00:51:59.920Z,102105.50
2023-02-11T00:54:44.002Z,102127.19
2023-02-11T00:57:28.004Z,102125.66
2023-02-11T01:00:15.698Z,102127.88
2023-02-11T01:02:59.523Z,102123.00
2023-02-11T01:05:43.240Z,102133.31
2023-02-11T01:08:27.514Z,102132.91
2023-02-11T01:11:15.610Z,102139.22
2023-02-11T01:14:02.100Z,102121.84
2023-02-11T01:16:47.248Z,102118.50
2023-02-11T01:19:31.377Z,102087.31
2023-02-11T01:22:15.245Z,102110.50
2023-02-11T01:24:59.083Z,102112.28
2023-02-11T01:27:42.960Z,102103.84
2023-02-11T01:30:26.851Z,102104.94
2023-02-11T01:33:12.209Z,102101.84
2023-02-11T01:35:55.989Z,102107.09
2023-02-11T01:38:41.320Z,102053.56
2023-02-11T01:41:25.294Z,102097.88
2023-02-11T01:44:27.330Z,102106.13
2023-02-11T01:47:11.347Z,102088.00
2023-02-11T01:50:00.495Z,102095.69
2023-02-11T01:52:48.136Z,102097.41
2023-02-11T01:55:50.628Z,102098.53
2023-02-11T01:58:39.434Z,102099.75
2023-02-11T02:01:26.905Z,102095.72
2023-02-11T02:04:12.542Z,102100.31
2023-02-11T02:07:03.774Z,102082.69
2023-02-11T02:09:53.891Z,102058.44
2023-02-11T02:12:37.669Z,102057.81
2023-02-11T02:15:27.661Z,102092.41
2023-02-11T02:18:31.843Z,102071.25
2023-02-11T02:21:36.954Z,102091.38
2023-02-11T02:24:39.878Z,102074.91
2023-02-11T02:27:43.488Z,102108.00
2023-02-11T02:30:58.052Z,102102.22
2023-02-11T02:33:55.587Z,102068.22
2023-02-11T02:36:49.406Z,102092.63
2023-02-11T02:39:36.952Z,102077.94
2023-02-11T02:42:22.600Z,102101.81
2023-02-11T02:45:08.355Z,102116.22
2023-02-11T02:47:53.849Z,102116.75
2023-02-11T02:50:39.488Z,102127.31
2023-02-11T02:53:33.335Z,102114.28
2023-02-11T02:56:27.212Z,102122.69
2023-02-11T02:59:36.381Z,102120.78
2023-02-11T03:02:28.060Z,102109.59
2023-02-11T03:05:18.999Z,102115.03
2023-02-11T03:08:09.332Z,102100.94
2023-02-11T03:10:55.674Z,102098.16
2023-02-11T03:13:41.144Z,102110.03
2023-02-11T03:16:29.436Z,102116.78
2023-02-11T03:19:17.167Z,102109.72
2023-02-11T03:22:03.843Z,102090.94
2023-02-11T03:24:49.967Z,102094.88
2023-02-11T03:27:40.827Z,102112.03
2023-02-11T03:30:29.822Z,102112.41
2023-02-11T03:33:19.031Z,102077.09
2023-02-11T03:36:08.117Z,102098.75
2023-02-11T03:38:57.541Z,102109.06
2023-02-11T03:41:44.703Z,102111.25
2023-02-11T03:44:32.753Z,102044.94
2023-02-11T03:47:21.422Z,102046.25
2023-02-11T03:50:07.609Z,102109.31
2023-02-11T03:52:52.282Z,102062.28
2023-02-11T03:55:41.093Z,102055.81
2023-02-11T03:58:26.623Z,102106.03
2023-02-11T04:01:10.967Z,102053.53
2023-02-11T04:03:54.992Z,102100.78
2023-02-11T04:06:39.000Z,102098.88
2023-02-11T04:09:22.843Z,102075.66
2023-02-11T04:12:06.911Z,102105.31
2023-02-11T04:14:52.191Z,102080.59
2023-02-11T04:17:36.074Z,102071.59
2023-02-11T04:20:20.088Z,102079.03
2023-02-11T04:23:04.030Z,102087.91
2023-02-11T04:25:47.997Z,102086.81
2023-02-11T04:28:32.245Z,102078.69
2023-02-11T04:31:17.594Z,102071.38
2023-02-11T04:34:01.585Z,102080.78
2023-02-11T04:36:45.448Z,102035.13
2023-02-11T04:39:29.270Z,102072.13
2023-02-11T04:42:13.037Z,102072.50
2023-02-11T04:44:56.927Z,102067.69
2023-02-11T04:47:42.556Z,102074.81
2023-02-11T04:50:26.560Z,102076.06
2023-02-11T04:53:10.370Z,102071.59
2023-02-11T04:55:54.183Z,102057.88
2023-02-11T04:58:38.115Z,102067.72
2023-02-11T05:01:21.907Z,102055.50
2023-02-11T05:04:07.442Z,102070.44
2023-02-11T05:06:51.508Z,102071.09
2023-02-11T05:09:35.355Z,102015.34
2023-02-11T05:12:19.175Z,102075.00
2023-02-11T05:15:03.030Z,102063.00
2023-02-11T05:17:48.388Z,102066.53
2023-02-11T05:20:33.596Z,102030.47
2023-02-11T05:23:17.374Z,102067.94
2023-02-11T05:26:01.184Z,102073.09
2023-02-11T05:28:46.249Z,102065.78
2023-02-11T05:31:30.211Z,102069.00
2023-02-11T05:34:14.081Z,102048.84
2023-02-11T05:36:59.382Z,102039.53
2023-02-11T05:39:43.263Z,102041.38
2023-02-11T05:42:26.987Z,102053.63
2023-02-11T05:45:11.214Z,102038.78
2023-02-11T05:47:54.911Z,102067.72
2023-02-11T05:50:38.897Z,102064.34
2023-02-11T05:53:24.017Z,102066.81
2023-02-11T05:56:08.390Z,102054.41
2023-02-11T05:58:52.365Z,102044.63
2023-02-11T06:01:36.259Z,102082.19
2023-02-11T06:04:20.246Z,102047.13
2023-02-11T06:07:04.710Z,102073.63
2023-02-11T06:09:49.959Z,102050.03
2023-02-11T06:12:33.863Z,102076.38
2023-02-11T06:15:17.830Z,102077.84
2023-02-11T06:18:01.724Z,102065.91
2023-02-11T06:20:45.418Z,102076.78
2023-02-11T06:23:30.550Z,102073.78
2023-02-11T06:26:20.422Z,102062.97
2023-02-11T06:29:04.339Z,102055.09
2023-02-11T06:31:48.243Z,102069.00
2023-02-11T06:34:32.160Z,102053.91
2023-02-11T06:37:16.067Z,102074.81
2023-02-11T06:39:59.793Z,102061.84
2023-02-11T06:42:44.960Z,102062.31
2023-02-11T06:45:28.695Z,102051.56
2023-02-11T06:48:12.762Z,102057.13
2023-02-11T06:50:56.571Z,102049.38
2023-02-11T06:53:42.580Z,102061.06
2023-02-11T06:56:27.542Z,101913.13
2023-02-11T06:59:16.630Z,102053.56
2023-02-11T07:02:00.563Z,102064.31
2023-02-11T07:04:44.575Z,102063.47
2023-02-11T07:07:30.050Z,102032.59
2023-02-11T07:10:15.112Z,102049.06
2023-02-11T07:12:58.974Z,102056.31
2023-02-11T07:15:44.356Z,102068.94
2023-02-11T07:18:28.305Z,102058.88
2023-02-11T07:21:14.840Z,102009.13
2023-02-11T07:23:59.001Z,102006.31
2023-02-11T07:26:42.982Z,102008.88
2023-02-11T07:29:26.980Z,102002.19
2023-02-11T07:32:12.457Z,102022.06
2023-02-11T07:34:56.705Z,102041.81
2023-02-11T07:37:41.692Z,101981.75
2023-02-11T07:40:25.746Z,101990.03
2023-02-11T07:43:09.719Z,101990.00
2023-02-11T07:45:53.774Z,101993.38
2023-02-11T07:48:40.074Z,102026.97
2023-02-11T07:51:26.777Z,102018.97
2023-02-11T07:54:12.885Z,102014.31
2023-02-11T07:56:56.939Z,101969.22
2023-02-11T07:59:41.037Z,101972.69
2023-02-11T08:02:25.076Z,102016.06
2023-02-11T08:05:11.168Z,102011.09
2023-02-11T08:07:56.121Z,102003.75
2023-02-11T08:10:40.348Z,101967.72
2023-02-11T08:13:24.543Z,102007.53
2023-02-11T08:16:13.261Z,102004.53
2023-02-11T08:18:59.253Z,102001.75
2023-02-11T08:21:46.076Z,101993.09
2023-02-11T08:24:30.062Z,101999.09
2023-02-11T08:27:14.091Z,101985.97
2023-02-11T08:30:00.085Z,101989.38
2023-02-11T08:32:44.516Z,101990.41
2023-02-11T08:35:28.977Z,101985.22
2023-02-11T08:38:14.362Z,101988.78
2023-02-11T08:41:01.062Z,101984.47
2023-02-11T08:43:47.523Z,101979.94
2023-02-11T08:46:32.031Z,101953.59
2023-02-11T08:49:16.374Z,101974.47
2023-02-11T08:52:04.030Z,101977.59
2023-02-11T08:54:49.583Z,101968.09
2023-02-11T08:57:33.584Z,101957.38
2023-02-11T09:00:18.814Z,101964.16
2023-02-11T09:03:02.718Z,101959.25
2023-02-11T09:05:49.826Z,101960.06
2023-02-11T09:08:36.341Z,101936.44
2023-02-11T09:11:23.700Z,101943.91
2023-02-11T09:14:07.786Z,101932.25
2023-02-11T09:16:52.180Z,101940.88
2023-02-11T09:19:36.032Z,101939.34
2023-02-11T09:22:20.000Z,101931.47
2023-02-11T09:25:03.935Z,101930.91
2023-02-11T09:27:49.927Z,101907.72
2023-02-11T09:30:33.935Z,101930.75
2023-02-11T09:33:17.798Z,101924.66
2023-02-11T09:36:02.493Z,101905.94
2023-02-11T09:38:47.242Z,101915.81
2023-02-11T09:42:18.568Z,101912.94
2023-02-11T09:45:06.023Z,101898.13
2023-02-11T09:47:55.370Z,101899.69
2023-02-11T09:50:43.749Z,101896.44
2023-02-11T09:53:29.623Z,101896.59
2023-02-11T09:56:15.413Z,101898.38
2023-02-11T09:58:59.476Z,101890.09
2023-02-11T10:01:50.018Z,101883.84
2023-02-11T10:04:49.247Z,101876.22
2023-02-11T10:07:38.661Z,101879.44
2023-02-11T10:10:40.292Z,101870.75
2023-02-11T10:13:37.120Z,101877.63
2023-02-11T10:16:32.509Z,101861.28
2023-02-11T10:19:30.721Z,101865.59
2023-02-11T10:22:21.217Z,101853.78
2023-02-11T10:25:19.107Z,101849.44
2023-02-11T10:28:11.934Z,101840.72
2023-02-11T10:31:01.052Z,101834.84
2023-02-11T10:33:48.854Z,101834.97
2023-02-11T10:36:36.404Z,101830.84
2023-02-11T10:39:21.877Z,101826.44
2023-02-11T10:42:09.899Z,101820.53
2023-02-11T10:45:00.580Z,101809.13
2023-02-11T10:47:45.134Z,101808.16
2023-02-11T10:50:30.709Z,101815.25
2023-02-11T10:53:21.098Z,101776.94
2023-02-11T10:56:07.502Z,101797.03
2023-02-11T10:58:59.636Z,101753.25
2023-02-11T11:01:46.784Z,101762.19
2023-02-11T11:04:41.639Z,101775.28
2023-02-11T11:07:28.402Z,101777.94
2023-02-11T11:10:30.574Z,101767.50
2023-02-11T11:13:30.389Z,101764.16
2023-02-11T11:16:20.912Z,101771.13
2023-02-11T11:19:23.474Z,101770.19
2023-02-11T11:22:07.241Z,101770.16
2023-02-11T11:24:54.490Z,101724.91
2023-02-11T11:27:39.742Z,101757.13
2023-02-11T11:30:26.989Z,101744.94
2023-02-11T11:33:22.330Z,101744.06
2023-02-11T11:36:08.971Z,101744.06
2023-02-11T11:38:55.875Z,101636.03
2023-02-11T11:41:51.245Z,101733.66
2023-02-11T11:44:38.038Z,101724.09
2023-02-11T11:47:28.209Z,101722.34
2023-02-11T11:50:36.299Z,101720.59
2023-02-11T11:53:24.709Z,101697.03
2023-02-11T11:56:15.417Z,101701.44
2023-02-11T11:59:03.745Z,101703.13
2023-02-11T12:02:03.241Z,101701.41
2023-02-11T12:05:02.626Z,101686.53
2023-02-11T12:08:02.136Z,101695.28
2023-02-11T12:10:58.839Z,101684.84
2023-02-11T12:13:54.625Z,101679.56
2023-02-11T12:16:52.093Z,101667.44
2023-02-11T12:20:01.015Z,101680.50
2023-02-11T12:22:54.733Z,101670.00
2023-02-11T12:25:46.024Z,101665.53
2023-02-11T12:28:41.510Z,101621.16
2023-02-11T12:31:38.207Z,101666.47
2023-02-11T12:34:47.049Z,101665.53
2023-02-11T12:37:44.573Z,101646.34
2023-02-11T12:40:35.172Z,101649.88
2023-02-11T12:43:23.776Z,101649.81
2023-02-11T12:46:36.200Z,101649.84
2023-02-11T12:49:42.968Z,101642.81
2023-02-11T12:52:51.657Z,101652.50
2023-02-11T12:55:38.296Z,101628.03
2023-02-11T12:58:35.536Z,101634.13
2023-02-11T13:01:30.767Z,101628.94
2023-02-11T13:04:22.300Z,101630.63
2023-02-11T13:07:14.352Z,101628.91
2023-02-11T13:10:07.707Z,101598.41
2023-02-11T13:13:11.528Z,101624.50
2023-02-11T13:16:02.366Z,101613.00
2023-02-11T13:18:57.296Z,101616.69
2023-02-11T13:22:10.744Z,101618.34
2023-02-11T13:25:01.107Z,101613.19
2023-02-11T13:27:58.411Z,101611.47
2023-02-11T13:30:47.526Z,101615.78
2023-02-11T13:33:39.651Z,101609.59
2023-02-11T13:36:25.734Z,101563.56
2023-02-11T13:39:21.910Z,101603.50
2023-02-11T13:42:07.381Z,101605.31
2023-02-11T13:44:51.675Z,101608.78
2023-02-11T13:47:38.045Z,101585.38
2023-02-11T13:50:25.258Z,101594.84
2023-02-11T13:53:09.918Z,101596.50
2023-02-11T13:56:06.244Z,101593.94
2023-02-11T13:58:52.726Z,101570.44
2023-02-11T14:02:20.693Z,101589.50
2023-02-11T14:05:38.433Z,101578.38
2023-02-11T14:08:42.043Z,101577.56
2023-02-11T14:11:50.352Z,101575.75
2023-02-11T14:14:36.187Z,101567.97
2023-02-11T14:17:21.370Z,101568.78
2023-02-11T14:20:26.449Z,101574.88
2023-02-11T14:23:24.144Z,101568.78
2023-02-11T14:26:31.176Z,101570.53
2023-02-11T14:29:21.073Z,101559.28
2023-02-11T14:32:14.358Z,101549.69
2023-02-11T14:35:09.267Z,101551.47
2023-02-11T14:38:03.118Z,101516.63
2023-02-11T14:40:55.194Z,101547.94
2023-02-11T14:43:42.493Z,101542.72
2023-02-11T14:46:30.024Z,101531.41
2023-02-11T14:49:25.447Z,101527.94
2023-02-11T14:52:28.886Z,101546.25
2023-02-11T14:55:25.382Z,101506.28
2023-02-11T14:58:15.679Z,101502.75
2023-02-11T15:01:01.483Z,101546.25
2023-02-11T15:03:50.629Z,101538.44
2023-02-11T15:06:39.285Z,101536.72
2023-02-11T15:09:28.211Z,101541.06
2023-02-11T15:12:20.403Z,101498.44
2023-02-11T15:15:04.865Z,101477.59
2023-02-11T15:17:49.619Z,101528.06
2023-02-11T15:20:36.103Z,101541.16
2023-02-11T15:23:25.696Z,101486.31
2023-02-11T15:26:15.474Z,101536.78
2023-02-11T15:28:59.870Z,101485.44
2023-02-11T15:31:44.008Z,101523.63
2023-02-11T15:34:28.408Z,101494.03
2023-02-11T15:37:16.310Z,101497.50
2023-02-11T15:40:12.396Z,101534.06
2023-02-11T15:42:58.989Z,101487.03
2023-02-11T15:45:45.408Z,101532.22
2023-02-11T15:48:36.702Z,101487.38
2023-02-11T15:51:23.239Z,101486.22
2023-02-11T15:54:16.569Z,101491.34
2023-02-11T15:57:08.686Z,101524.75
2023-02-11T15:59:55.444Z,101491.66
2023-02-11T16:02:45.275Z,101531.41
2023-02-11T16:05:32.840Z,101524.38
2023-02-11T16:08:24.573Z,101519.75
2023-02-11T16:11:09.721Z,101484.25
2023-02-11T16:13:55.118Z,101510.38
2023-02-11T16:16:39.166Z,101470.25
2023-02-11T16:19:25.718Z,101502.69
2023-02-11T16:22:12.157Z,101517.44
2023-02-11T16:24:59.606Z,101516.72
2023-02-11T16:27:44.332Z,101516.09
2023-02-11T16:30:37.629Z,101481.91
2023-02-11T16:33:21.859Z,101518.63
2023-02-11T16:36:13.620Z,101484.78
2023-02-11T16:38:57.499Z,101505.63
2023-02-11T16:41:41.842Z,101516.09
2023-02-11T16:44:25.935Z,101496.03
2023-02-11T16:47:20.679Z,101512.50
2023-02-11T16:50:04.592Z,101508.91
2023-02-11T16:52:48.457Z,101510.78
2023-02-11T16:55:32.590Z,101516.84
2023-02-11T16:58:16.988Z,101499.41
2023-02-11T17:01:01.057Z,101501.16
2023-02-11T17:03:46.494Z,101491.44
2023-02-11T17:06:30.488Z,101506.75
2023-02-11T17:09:19.142Z,101505.81
2023-02-11T17:12:03.182Z,101478.84
2023-02-11T17:14:47.163Z,101503.41
2023-02-11T17:17:30.998Z,101454.81
2023-02-11T17:20:17.463Z,101504.50
2023-02-11T17:23:01.267Z,101501.03
2023-02-11T17:25:45.225Z,101517.44
2023-02-11T17:28:29.112Z,101501.75
2023-02-11T17:31:13.097Z,101464.19
2023-02-11T17:33:57.390Z,101495.41
2023-02-11T17:36:42.595Z,101491.72
2023-02-11T17:39:26.493Z,101484.81
2023-02-11T17:42:11.742Z,101489.22
2023-02-11T17:44:55.688Z,101497.91
2023-02-11T17:47:39.730Z,101459.47
2023-02-11T17:50:23.801Z,101406.97
2023-02-11T17:53:09.230Z,101468.25
2023-02-11T17:55:53.363Z,101457.88
2023-02-11T17:58:37.420Z,101494.47
2023-02-11T18:01:21.629Z,101447.34
2023-02-11T18:04:06.606Z,101489.16
2023-02-11T18:06:53.630Z,101494.59
2023-02-11T18:09:42.846Z,101433.53
2023-02-11T18:12:26.847Z,101448.81
2023-02-11T18:15:11.450Z,101485.72
2023-02-11T18:17:56.284Z,101487.53
2023-02-11T18:20:42.893Z,101399.31
2023-02-11T18:23:27.105Z,101441.88
2023-02-11T18:26:14.630Z,101476.63
2023-02-11T18:29:00.717Z,101469.53
2023-02-11T18:31:44.776Z,101436.09
2023-02-11T18:34:28.879Z,101422.84
2023-02-11T18:37:14.154Z,101471.78
2023-02-11T18:39:58.196Z,101429.94
2023-02-11T18:42:44.126Z,101413.53
2023-02-11T18:45:29.274Z,101458.72
2023-02-11T18:48:13.859Z,101411.78
2023-02-11T18:50:57.923Z,101415.22
2023-02-11T18:53:42.314Z,101459.19
2023-02-11T18:56:27.908Z,101455.84
2023-02-11T18:59:13.810Z,101452.28
2023-02-11T19:01:58.142Z,101400.47
2023-02-11T19:04:42.185Z,101408.22
2023-02-11T19:07:26.399Z,101390.78
2023-02-11T19:10:10.652Z,101434.13
2023-02-11T19:12:56.411Z,101404.22
2023-02-11T19:15:44.585Z,101435.97
2023-02-11T19:18:28.608Z,101438.69
2023-02-11T19:21:14.110Z,101426.75
2023-02-11T19:23:58.512Z,101425.16
2023-02-11T19:26:43.526Z,101415.53
2023-02-11T19:29:28.234Z,101415.06
2023-02-11T19:32:13.573Z,101421.91
2023-02-11T19:34:57.638Z,101369.06
2023-02-11T19:37:41.646Z,101408.31
2023-02-11T19:40:25.707Z,101360.69
2023-02-11T19:43:09.742Z,101385.13
2023-02-11T19:45:56.402Z,101343.44
2023-02-11T19:48:42.028Z,101407.75
2023-02-11T19:51:26.193Z,101395.13
2023-02-11T19:54:10.227Z,101398.19
2023-02-11T19:56:54.440Z,101395.53
2023-02-11T19:59:38.394Z,101385.06
2023-02-11T20:02:22.643Z,101329.31
2023-02-11T20:05:08.670Z,101331.28
2023-02-11T20:07:52.811Z,101361.91
2023-02-11T20:10:36.810Z,101341.97
2023-02-11T20:13:20.857Z,101350.13
2023-02-11T20:16:09.023Z,101329.22
2023-02-11T20:18:53.716Z,101342.44
2023-02-11T20:21:39.698Z,101329.81
2023-02-11T20:24:24.520Z,101309.03
2023-02-11T20:27:10.563Z,101303.84
2023-02-11T20:29:54.617Z,101351.84
2023-02-11T20:32:39.119Z,101348.34
2023-02-11T20:35:23.098Z,101303.16
2023-02-11T20:38:08.688Z,101344.81
2023-02-11T20:40:53.140Z,101251.13
2023-02-11T20:43:38.027Z,101307.69
2023-02-11T20:46:24.341Z,101347.03
2023-02-11T20:49:08.874Z,101293.91
2023-02-11T20:51:54.084Z,101287.06
2023-02-11T20:54:39.874Z,101332.44
2023-02-11T20:57:23.912Z,101278.25
2023-02-11T21:00:09.822Z,101281.66
2023-02-11T21:02:54.121Z,101319.16
2023-02-11T21:05:38.122Z,101318.38
2023-02-11T21:08:22.234Z,101260.84
2023-02-11T21:11:09.011Z,101263.03
2023-02-11T21:13:53.293Z,101257.78
2023-02-11T21:16:37.423Z,101284.38
2023-02-11T21:19:22.012Z,101300.56
2023-02-11T21:22:06.087Z,101235.41
2023-02-11T21:24:50.335Z,101291.38
2023-02-11T21:27:35.812Z,101284.41
2023-02-11T21:30:19.958Z,101251.97
2023-02-11T21:33:03.882Z,101285.97
2023-02-11T21:35:47.959Z,101286.66
2023-02-11T21:38:32.915Z,101226.88
2023-02-11T21:41:17.075Z,101231.88
2023-02-11T21:44:02.509Z,101266.88
2023-02-11T21:46:47.114Z,101218.59
2023-02-11T21:49:31.034Z,101211.78
2023-02-11T21:52:14.969Z,101269.19
2023-02-11T21:54:59.081Z,101210.09
2023-02-11T21:57:43.089Z,101257.53
2023-02-11T22:00:29.105Z,101259.16
2023-02-11T22:03:14.116Z,101201.03
2023-02-11T22:05:58.060Z,101188.06
2023-02-11T22:08:42.751Z,101270.16
2023-02-11T22:11:26.582Z,101261.56
2023-02-11T22:14:10.407Z,101251.34
2023-02-11T22:16:55.623Z,101254.41
2023-02-11T22:19:39.518Z,101256.47
2023-02-11T22:22:23.281Z,101249.59
2023-02-11T22:25:07.794Z,101237.69
2023-02-11T22:27:51.491Z,101241.44
2023-02-11T22:30:35.340Z,101232.94
2023-02-11T22:33:20.583Z,101233.81
2023-02-11T22:36:07.638Z,101232.03
2023-02-11T22:38:52.092Z,101223.63
2023-02-11T22:41:38.288Z,101183.88
2023-02-11T22:44:22.085Z,101231.31
2023-02-11T22:47:06.003Z,101223.03
2023-02-11T22:49:51.154Z,101212.75
2023-02-11T22:52:36.531Z,101203.22
2023-02-11T22:55:20.375Z,101216.72
2023-02-11T22:58:04.333Z,101224.19
2023-02-11T23:00:48.038Z,101206.31
2023-02-11T23:03:32.639Z,101214.44
2023-02-11T23:06:18.597Z,101204.78
2023-02-11T23:09:04.191Z,101198.84
2023-02-11T23:11:49.443Z,101203.31
2023-02-11T23:14:33.208Z,101199.66
2023-02-11T23:17:16.932Z,101206.47
2023-02-11T23:20:00.686Z,101192.09
2023-02-11T23:22:45.830Z,101173.13
2023-02-11T23:25:29.802Z,101184.44
2023-02-11T23:28:13.976Z,101190.53
2023-02-11T23:30:57.906Z,101183.47
2023-02-11T23:33:41.753Z,101185.91
2023-02-11T23:36:25.688Z,101178.47
2023-02-11T23:39:14.508Z,101189.03
2023-02-11T23:41:59.627Z,101182.69
2023-02-11T23:44:43.622Z,101181.94
2023-02-11T23:47:27.408Z,101182.69
2023-02-11T23:50:12.582Z,101134.09
2023-02-11T23:52:56.416Z,101177.56
2023-02-11T23:55:42.859Z,101182.03
2023-02-11T23:58:26.695Z,101176.81
